createdAt,value
2023-03-13T00:01:44.688Z,95222.53
2023-03-13T00:04:14.130Z,95227.75
2023-03-13T00:06:43.958Z,95222.66
2023-03-13T00:09:16.813Z,95216.66
2023-03-13T00:11:47.393Z,95221.25
2023-03-13T00:14:18.299Z,95207.72
2023-03-13T00:16:47.942Z,95211.19
2023-03-13T00:19:17.527Z,95216.19
2023-03-13T00:21:46.924Z,95216.53
2023-03-13T00:24:16.648Z,95208.19
2023-03-13T00:26:46.024Z,95197.22
2023-03-13T00:29:16.776Z,95204.38
2023-03-13T00:31:46.216Z,95194.19
2023-03-13T00:34:15.630Z,95192.81
2023-03-13T00:36:45.147Z,95188.31
2023-03-13T00:39:14.572Z,95196.19
2023-03-13T00:41:44.564Z,95191.00
2023-03-13T00:44:14.135Z,95187.44
2023-03-13T00:46:44.912Z,95195.28
2023-03-13T00:49:14.377Z,95190.09
2023-03-13T00:51:43.798Z,95185.97
2023-03-13T00:54:13.197Z,95195.22
2023-03-13T00:56:42.690Z,95188.97
2023-03-13T00:59:12.135Z,95185.16
2023-03-13T01:01:41.944Z,95175.78
2023-03-13T01:04:14.041Z,95168.59
2023-03-13T01:06:44.170Z,95165.84
2023-03-13T01:09:16.730Z,95159.47
2023-03-13T01:11:47.346Z,95163.19
2023-03-13T01:14:21.083Z,95159.94
2023-03-13T01:16:50.548Z,95147.13
2023-03-13T01:19:21.331Z,95151.66
2023-03-13T01:21:50.698Z,95154.75
2023-03-13T01:24:20.247Z,95158.69
2023-03-13T01:26:49.867Z,95153.84
2023-03-13T01:29:19.550Z,95157.75
2023-03-13T01:31:49.460Z,95149.09
2023-03-13T01:34:20.296Z,95148.97
2023-03-13T01:36:52.205Z,95151.84
2023-03-13T01:39:21.584Z,95150.94
2023-03-13T01:41:51.149Z,95151.88
2023-03-13T01:44:26.472Z,95144.94
2023-03-13T01:46:57.314Z,95134.53
2023-03-13T01:49:34.098Z,95145.16
2023-03-13T01:52:16.266Z,95143.53
2023-03-13T01:54:58.446Z,95133.50
2023-03-13T01:57:33.605Z,95126.09
2023-03-13T02:00:10.506Z,95124.84
2023-03-13T02:02:48.528Z,95128.88
2023-03-13T02:05:24.534Z,95120.69
2023-03-13T02:08:01.581Z,95126.59
2023-03-13T02:10:33.071Z,95125.53
2023-03-13T02:13:03.804Z,95127.94
2023-03-13T02:15:39.576Z,95120.53
2023-03-13T02:18:09.219Z,95122.97
2023-03-13T02:20:42.031Z,95119.75
2023-03-13T02:23:22.907Z,95121.94
2023-03-13T02:25:55.466Z,95128.06
2023-03-13T02:28:39.311Z,95122.75
2023-03-13T02:31:13.395Z,95134.06
2023-03-13T02:33:45.089Z,95130.84
2023-03-13T02:36:18.948Z,95130.84
2023-03-13T02:38:56.492Z,95129.78
2023-03-13T02:41:30.115Z,95135.91
2023-03-13T02:44:01.380Z,95134.28
2023-03-13T02:46:32.314Z,95131.41
2023-03-13T02:49:23.730Z,95127.47
2023-03-13T02:51:56.994Z,95121.94
2023-03-13T02:54:35.313Z,95128.88
2023-03-13T02:57:07.323Z,95124.38
2023-03-13T02:59:36.824Z,95120.91
2023-03-13T03:02:06.452Z,95126.22
2023-03-13T03:04:35.951Z,95128.63
2023-03-13T03:07:05.559Z,95122.88
2023-03-13T03:09:35.579Z,95126.00
2023-03-13T03:12:11.401Z,95127.13
2023-03-13T03:14:41.170Z,95130.56
2023-03-13T03:17:10.570Z,95119.13
2023-03-13T03:19:40.115Z,95118.56
2023-03-13T03:22:12.023Z,95126.53
2023-03-13T03:24:41.437Z,95120.41
2023-03-13T03:27:12.188Z,95126.88
2023-03-13T03:29:48.766Z,95121.91
2023-03-13T03:32:18.850Z,95122.47
2023-03-13T03:34:48.300Z,95120.06
2023-03-13T03:37:17.768Z,95119.81
2023-03-13T03:39:47.219Z,95113.22
2023-03-13T03:42:18.052Z,95113.22
2023-03-13T03:44:47.597Z,95105.03
2023-03-13T03:47:18.217Z,95106.88
2023-03-13T03:49:50.146Z,95100.50
2023-03-13T03:52:19.798Z,95104.22
2023-03-13T03:54:49.336Z,95097.50
2023-03-13T03:57:21.849Z,95096.13
2023-03-13T03:59:51.392Z,95099.81
2023-03-13T04:02:20.920Z,95083.88
2023-03-13T04:04:50.484Z,95082.84
2023-03-13T04:07:27.592Z,95074.06
2023-03-13T04:09:57.096Z,95072.44
2023-03-13T04:12:34.659Z,95060.75
2023-03-13T04:15:05.694Z,95054.63
2023-03-13T04:17:35.285Z,95050.34
2023-03-13T04:20:07.783Z,95044.47
2023-03-13T04:22:38.081Z,95037.53
2023-03-13T04:25:08.900Z,95034.63
2023-03-13T04:27:40.072Z,95029.78
2023-03-13T04:30:13.000Z,95024.69
2023-03-13T04:33:01.050Z,95026.31
2023-03-13T04:35:53.658Z,95017.78
2023-03-13T04:38:31.702Z,95010.59
2023-03-13T04:41:27.310Z,95006.66
2023-03-13T04:44:12.231Z,94997.97
2023-03-13T04:47:01.335Z,95002.38
2023-03-13T04:49:51.104Z,95000.03
2023-03-13T04:52:45.071Z,94995.94
2023-03-13T04:55:23.919Z,94988.25
2023-03-13T04:58:13.560Z,94997.84
2023-03-13T05:00:49.207Z,94998.19
2023-03-13T05:03:48.569Z,95005.47
2023-03-13T05:06:40.934Z,95001.50
2023-03-13T05:09:33.181Z,94992.41
2023-03-13T05:12:22.047Z,94997.16
2023-03-13T05:15:08.240Z,94994.09
2023-03-13T05:17:53.545Z,94980.88
2023-03-13T05:20:33.886Z,94999.00
2023-03-13T05:23:38.023Z,94969.97
2023-03-13T05:26:25.558Z,94983.59
2023-03-13T05:29:15.374Z,94977.78
2023-03-13T05:31:59.835Z,94970.94
2023-03-13T05:34:43.043Z,94962.47
2023-03-13T05:37:36.936Z,94962.56
2023-03-13T05:40:43.161Z,94959.97
2023-03-13T05:43:42.643Z,94954.94
2023-03-13T05:46:34.165Z,94950.75
2023-03-13T05:49:22.300Z,94947.03
2023-03-13T05:52:08.414Z,94936.94
2023-03-13T05:55:11.198Z,94941.28
2023-03-13T05:57:59.939Z,94932.56
2023-03-13T06:00:49.104Z,94936.59
2023-03-13T06:03:37.245Z,94935.34
2023-03-13T06:06:08.429Z,94926.47
2023-03-13T06:08:44.678Z,94919.09
2023-03-13T06:11:15.149Z,94913.94
2023-03-13T06:13:44.901Z,94913.56
2023-03-13T06:16:46.928Z,94913.91
2023-03-13T06:19:24.487Z,94917.00
2023-03-13T06:21:54.219Z,94910.69
2023-03-13T06:24:26.566Z,94910.25
2023-03-13T06:26:59.825Z,94910.38
2023-03-13T06:29:32.654Z,94911.69
2023-03-13T06:32:05.002Z,94913.47
2023-03-13T06:34:35.888Z,94915.44
2023-03-13T06:37:07.287Z,94923.75
2023-03-13T06:39:38.380Z,94917.69
2023-03-13T06:42:08.824Z,94914.72
2023-03-13T06:44:38.247Z,94919.78
2023-03-13T06:47:08.351Z,94926.44
2023-03-13T06:49:38.074Z,94917.09
2023-03-13T06:52:07.732Z,94922.47
2023-03-13T06:54:38.880Z,94927.56
2023-03-13T06:57:08.300Z,94927.81
2023-03-13T06:59:37.966Z,94918.19
2023-03-13T07:02:07.909Z,94908.56
2023-03-13T07:04:37.305Z,94904.06
2023-03-13T07:07:07.298Z,94899.06
2023-03-13T07:09:38.169Z,94892.69
2023-03-13T07:12:08.873Z,94894.38
2023-03-13T07:14:38.285Z,94892.88
2023-03-13T07:17:07.864Z,94884.13
2023-03-13T07:19:37.415Z,94883.88
2023-03-13T07:22:06.982Z,94882.56
2023-03-13T07:24:37.821Z,94885.81
2023-03-13T07:27:08.272Z,94889.28
2023-03-13T07:29:37.938Z,94879.63
2023-03-13T07:32:08.625Z,94882.31
2023-03-13T07:34:38.300Z,94881.78
2023-03-13T07:37:07.791Z,94884.72
2023-03-13T07:39:38.658Z,94884.47
2023-03-13T07:42:08.693Z,94893.06
2023-03-13T07:44:38.356Z,94894.09
2023-03-13T07:47:08.310Z,94894.38
2023-03-13T07:49:41.168Z,94898.94
2023-03-13T07:52:10.869Z,94895.69
2023-03-13T07:54:41.769Z,94897.56
2023-03-13T07:57:11.192Z,94880.09
2023-03-13T07:59:40.670Z,94868.81
2023-03-13T08:02:13.908Z,94869.38
2023-03-13T08:04:43.521Z,94873.38
2023-03-13T08:07:13.645Z,94880.59
2023-03-13T08:09:44.452Z,94882.44
2023-03-13T08:12:13.877Z,94888.56
2023-03-13T08:14:43.281Z,94895.88
2023-03-13T08:17:12.650Z,94890.50
2023-03-13T08:19:42.324Z,94889.69
2023-03-13T08:22:11.715Z,94881.28
2023-03-13T08:24:41.108Z,94889.81
2023-03-13T08:27:11.888Z,94877.94
2023-03-13T08:29:41.353Z,94892.06
2023-03-13T08:32:10.916Z,94889.53
2023-03-13T08:34:40.572Z,94884.28
2023-03-13T08:37:09.939Z,94891.34
2023-03-13T08:39:39.571Z,94896.88
2023-03-13T08:42:14.226Z,94891.72
2023-03-13T08:44:43.658Z,94882.47
2023-03-13T08:47:13.126Z,94883.75
2023-03-13T08:49:42.663Z,94871.16
2023-03-13T08:52:12.097Z,94872.28
2023-03-13T08:54:41.808Z,94866.22
2023-03-13T08:57:12.600Z,94861.50
2023-03-13T08:59:42.325Z,94864.88
2023-03-13T09:02:11.969Z,94861.44
2023-03-13T09:04:41.461Z,94865.38
2023-03-13T09:07:10.829Z,94863.66
2023-03-13T09:09:40.274Z,94860.78
2023-03-13T09:12:24.572Z,94860.06
2023-03-13T09:14:59.296Z,94858.16
2023-03-13T09:17:28.745Z,94854.72
2023-03-13T09:20:00.871Z,94843.16
2023-03-13T09:22:30.661Z,94847.78
2023-03-13T09:25:00.140Z,94840.72
2023-03-13T09:27:30.899Z,94828.72
2023-03-13T09:30:00.276Z,94828.91
2023-03-13T09:32:29.789Z,94824.53
2023-03-13T09:34:59.396Z,94819.84
2023-03-13T09:37:28.824Z,94821.50
2023-03-13T09:39:59.100Z,94829.69
2023-03-13T09:42:42.004Z,94815.81
2023-03-13T09:45:19.548Z,94814.88
2023-03-13T09:47:54.192Z,94816.75
2023-03-13T09:50:30.202Z,94812.13
2023-03-13T09:53:12.837Z,94800.28
2023-03-13T09:55:46.018Z,94796.72
2023-03-13T09:58:23.031Z,94789.78
2023-03-13T10:00:57.639Z,94783.16
2023-03-13T10:03:32.955Z,94781.75
2023-03-13T10:06:14.108Z,94774.91
2023-03-13T10:08:43.610Z,94774.75
2023-03-13T10:11:26.328Z,94768.19
2023-03-13T10:14:06.911Z,94782.38
2023-03-13T10:16:45.630Z,94775.22
2023-03-13T10:19:18.778Z,94777.47
2023-03-13T10:21:54.940Z,94769.19
2023-03-13T10:24:35.246Z,94780.97
2023-03-13T10:27:04.921Z,94784.50
2023-03-13T10:29:35.955Z,94783.69
2023-03-13T10:32:08.860Z,94771.56
2023-03-13T10:34:56.391Z,94774.91
2023-03-13T10:37:30.033Z,94762.28
2023-03-13T10:40:15.624Z,94754.16
2023-03-13T10:42:46.745Z,94756.09
2023-03-13T10:45:23.902Z,94750.84
2023-03-13T10:48:02.390Z,94759.63
2023-03-13T10:50:36.374Z,94766.00
2023-03-13T10:53:25.530Z,94748.13
2023-03-13T10:55:58.516Z,94751.16
2023-03-13T10:58:36.962Z,94754.69
2023-03-13T11:01:25.746Z,94763.44
2023-03-13T11:03:58.051Z,94751.16
2023-03-13T11:06:32.967Z,94753.09
2023-03-13T11:09:13.178Z,94770.16
2023-03-13T11:11:49.792Z,94748.13
2023-03-13T11:14:23.322Z,94744.09
2023-03-13T11:17:01.925Z,94749.16
2023-03-13T11:20:00.581Z,94738.44
2023-03-13T11:22:43.508Z,94738.88
2023-03-13T11:25:31.617Z,94728.31
2023-03-13T11:28:21.748Z,94721.91
2023-03-13T11:31:09.320Z,94722.66
2023-03-13T11:33:53.391Z,94720.81
2023-03-13T11:36:33.163Z,94723.16
2023-03-13T11:39:25.336Z,94715.81
2023-03-13T11:42:02.759Z,94713.19
2023-03-13T11:44:39.688Z,94707.56
2023-03-13T11:47:41.090Z,94705.72
2023-03-13T11:50:29.127Z,94689.84
2023-03-13T11:53:26.252Z,94684.47
2023-03-13T11:56:14.899Z,94680.34
2023-03-13T11:59:16.236Z,94683.94
2023-03-13T12:01:54.190Z,94677.44
2023-03-13T12:04:33.121Z,94674.66
2023-03-13T12:07:20.296Z,94671.16
2023-03-13T12:09:55.908Z,94667.63
2023-03-13T12:12:39.557Z,94656.63
2023-03-13T12:15:23.423Z,94656.50
2023-03-13T12:17:59.668Z,94659.94
2023-03-13T12:20:41.040Z,94656.03
2023-03-13T12:23:21.114Z,94643.28
2023-03-13T12:25:56.543Z,94627.31
2023-03-13T12:28:39.025Z,94628.09
2023-03-13T12:31:25.435Z,94627.91
2023-03-13T12:34:01.628Z,94623.09
2023-03-13T12:36:37.621Z,94622.44
2023-03-13T12:39:26.472Z,94602.94
2023-03-13T12:42:18.451Z,94601.59
2023-03-13T12:44:48.371Z,94590.69
2023-03-13T12:47:28.086Z,94588.06
2023-03-13T12:50:27.540Z,94583.16
2023-03-13T12:53:31.349Z,94575.00
2023-03-13T12:56:28.623Z,94571.38
2023-03-13T12:59:04.186Z,94575.56
2023-03-13T13:01:38.689Z,94565.81
2023-03-13T13:04:14.034Z,94563.97
2023-03-13T13:07:01.766Z,94561.97
2023-03-13T13:09:33.622Z,94551.81
2023-03-13T13:12:20.246Z,94560.81
2023-03-13T13:15:20.540Z,94555.09
2023-03-13T13:18:14.601Z,94556.03
2023-03-13T13:20:48.685Z,94549.34
2023-03-13T13:23:37.455Z,94538.56
2023-03-13T13:26:50.773Z,94540.16
2023-03-13T13:29:59.274Z,94537.97
2023-03-13T13:32:50.775Z,94520.78
2023-03-13T13:35:32.327Z,94513.94
2023-03-13T13:38:36.632Z,94514.78
2023-03-13T13:41:28.460Z,94498.84
2023-03-13T13:44:30.183Z,94488.25
2023-03-13T13:47:01.980Z,94482.31
2023-03-13T13:49:37.916Z,94482.13
2023-03-13T13:52:39.852Z,94475.75
2023-03-13T13:55:42.481Z,94475.34
2023-03-13T13:58:20.859Z,94467.00
2023-03-13T14:00:57.250Z,94459.22
2023-03-13T14:03:32.355Z,94455.97
2023-03-13T14:06:16.338Z,94457.50
2023-03-13T14:08:50.083Z,94440.75
2023-03-13T14:11:30.411Z,94428.34
2023-03-13T14:14:17.454Z,94432.97
2023-03-13T14:16:50.006Z,94420.63
2023-03-13T14:19:30.393Z,94405.28
2023-03-13T14:22:05.604Z,94403.63
2023-03-13T14:24:36.089Z,94394.16
2023-03-13T14:27:17.982Z,94397.28
2023-03-13T14:30:02.171Z,94386.19
2023-03-13T14:32:31.714Z,94375.19
2023-03-13T14:35:02.703Z,94376.81
2023-03-13T14:37:38.707Z,94368.63
2023-03-13T14:40:11.263Z,94364.25
2023-03-13T14:42:46.135Z,94358.13
2023-03-13T14:45:17.560Z,94353.09
2023-03-13T14:47:46.973Z,94342.31
2023-03-13T14:50:19.434Z,94333.75
2023-03-13T14:52:52.299Z,94330.16
2023-03-13T14:55:33.670Z,94325.63
2023-03-13T14:58:07.375Z,94326.13
2023-03-13T15:00:41.988Z,94323.50
2023-03-13T15:03:31.357Z,94320.19
2023-03-13T15:06:19.768Z,94319.19
2023-03-13T15:08:52.300Z,94311.94
2023-03-13T15:11:28.421Z,94310.06
2023-03-13T15:13:58.890Z,94320.50
2023-03-13T15:16:29.585Z,94302.28
2023-03-13T15:18:59.068Z,94289.28
2023-03-13T15:21:32.253Z,94272.75
2023-03-13T15:24:07.905Z,94268.03
2023-03-13T15:26:37.909Z,94262.91
2023-03-13T15:29:10.802Z,94249.75
2023-03-13T15:31:41.058Z,94247.31
2023-03-13T15:34:14.799Z,94240.41
2023-03-13T15:36:45.772Z,94240.88
2023-03-13T15:39:19.424Z,94240.59
2023-03-13T15:41:48.939Z,94240.25
2023-03-13T15:44:18.407Z,94230.59
2023-03-13T15:46:49.155Z,94220.84
2023-03-13T15:49:19.484Z,94216.47
2023-03-13T15:51:53.550Z,94213.84
2023-03-13T15:54:24.615Z,94211.78
2023-03-13T15:56:54.283Z,94202.09
2023-03-13T15:59:23.825Z,94196.72
2023-03-13T16:01:53.301Z,94206.69
2023-03-13T16:04:22.843Z,94201.03
2023-03-13T16:06:53.698Z,94193.59
2023-03-13T16:09:23.193Z,94182.94
2023-03-13T16:11:52.739Z,94185.66
2023-03-13T16:14:22.254Z,94175.84
2023-03-13T16:16:52.813Z,94170.16
2023-03-13T16:19:22.565Z,94162.59
2023-03-13T16:21:53.602Z,94165.59
2023-03-13T16:24:23.154Z,94151.59
2023-03-13T16:26:52.688Z,94142.00
2023-03-13T16:29:22.147Z,94130.97
2023-03-13T16:31:51.869Z,94130.53
2023-03-13T16:34:21.375Z,94138.47
2023-03-13T16:37:19.592Z,94133.81
2023-03-13T16:39:50.672Z,94130.41
2023-03-13T16:42:20.185Z,94117.94
2023-03-13T16:44:49.708Z,94118.03
2023-03-13T16:47:28.407Z,94102.84
2023-03-13T16:49:59.839Z,94102.84
2023-03-13T16:52:30.910Z,94096.25
2023-03-13T16:55:00.413Z,94091.47
2023-03-13T16:57:30.076Z,94096.50
2023-03-13T16:59:59.997Z,94091.38
2023-03-13T17:02:30.803Z,94096.31
2023-03-13T17:05:00.804Z,94084.69
2023-03-13T17:07:31.896Z,94081.22
2023-03-13T17:10:17.874Z,94076.47
2023-03-13T17:12:52.032Z,94065.91
2023-03-13T17:15:23.750Z,94065.78
2023-03-13T17:17:55.115Z,94064.13
2023-03-13T17:20:27.894Z,94062.19
2023-03-13T17:22:58.740Z,94064.56
2023-03-13T17:25:28.125Z,94058.47
2023-03-13T17:27:57.607Z,94062.28
2023-03-13T17:30:31.303Z,94057.50
2023-03-13T17:33:01.038Z,94049.78
2023-03-13T17:35:30.616Z,94046.72
2023-03-13T17:38:01.449Z,94050.53
2023-03-13T17:40:32.449Z,94051.16
2023-03-13T17:43:01.915Z,94051.75
2023-03-13T17:45:36.706Z,94048.44
2023-03-13T17:48:13.282Z,94064.38
2023-03-13T17:50:42.959Z,94046.06
2023-03-13T17:53:13.807Z,94046.94
2023-03-13T17:55:43.238Z,94051.63
2023-03-13T17:58:12.772Z,94042.81
2023-03-13T18:00:45.354Z,94052.56
2023-03-13T18:03:14.932Z,94046.41
2023-03-13T18:05:44.913Z,94054.06
2023-03-13T18:08:15.689Z,94047.25
2023-03-13T18:10:45.262Z,94049.78
2023-03-13T18:13:14.863Z,94051.84
2023-03-13T18:15:44.415Z,94045.34
2023-03-13T18:18:17.934Z,94038.97
2023-03-13T18:20:47.766Z,94032.28
2023-03-13T18:23:18.619Z,94034.50
2023-03-13T18:25:48.292Z,94022.13
2023-03-13T18:28:19.190Z,94016.38
2023-03-13T18:30:48.651Z,94008.75
2023-03-13T18:33:18.243Z,93999.22
2023-03-13T18:35:47.832Z,93994.31
2023-03-13T18:38:19.245Z,93982.09
2023-03-13T18:40:51.160Z,93968.94
2023-03-13T18:43:20.771Z,93960.41
2023-03-13T18:45:50.464Z,93947.88
2023-03-13T18:48:20.002Z,93941.47
2023-03-13T18:50:49.641Z,93930.19
2023-03-13T18:53:20.456Z,93926.31
2023-03-13T18:55:49.936Z,93910.97
2023-03-13T18:58:19.427Z,93903.69
2023-03-13T19:00:48.997Z,93894.63
2023-03-13T19:03:20.249Z,93900.38
2023-03-13T19:05:49.876Z,93886.59
2023-03-13T19:08:20.868Z,93888.88
2023-03-13T19:10:50.426Z,93890.13
2023-03-13T19:13:19.949Z,93883.50
2023-03-13T19:15:49.456Z,93876.88
2023-03-13T19:18:18.963Z,93873.22
2023-03-13T19:20:49.838Z,93867.53
2023-03-13T19:23:20.627Z,93873.41
2023-03-13T19:25:50.228Z,93861.16
2023-03-13T19:28:20.756Z,93861.66
2023-03-13T19:30:50.210Z,93848.50
2023-03-13T19:33:19.611Z,93847.56
2023-03-13T19:35:49.213Z,93847.72
2023-03-13T19:38:19.980Z,93836.78
2023-03-13T19:40:49.474Z,93839.00
2023-03-13T19:43:19.111Z,93834.53
2023-03-13T19:45:48.826Z,93828.03
2023-03-13T19:48:18.260Z,93828.84
2023-03-13T19:50:47.674Z,93817.25
2023-03-13T19:53:17.137Z,93826.31
2023-03-13T19:55:47.890Z,93823.44
2023-03-13T19:58:17.539Z,93818.84
2023-03-13T20:00:46.991Z,93827.56
2023-03-13T20:03:16.467Z,93826.44
2023-03-13T20:05:45.875Z,93826.31
2023-03-13T20:08:15.474Z,93840.88
2023-03-13T20:10:44.989Z,93847.06
2023-03-13T20:13:15.785Z,93841.66
2023-03-13T20:15:45.360Z,93849.41
2023-03-13T20:18:14.852Z,93855.41
2023-03-13T20:20:44.377Z,93854.22
2023-03-13T20:23:13.820Z,93853.88
2023-03-13T20:25:43.696Z,93840.03
2023-03-13T20:28:15.353Z,93850.59
2023-03-13T20:30:45.386Z,93851.56
2023-03-13T20:33:15.483Z,93845.78
2023-03-13T20:35:45.195Z,93838.28
2023-03-13T20:38:14.687Z,93830.66
2023-03-13T20:40:44.254Z,93829.38
2023-03-13T20:43:15.178Z,93829.69
2023-03-13T20:45:46.363Z,93820.53
2023-03-13T20:48:16.024Z,93818.16
2023-03-13T20:50:46.228Z,93820.03
2023-03-13T20:53:15.685Z,93829.44
2023-03-13T20:55:45.428Z,93822.56
2023-03-13T20:58:16.380Z,93830.78
2023-03-13T21:00:45.920Z,93841.66
2023-03-13T21:03:17.314Z,93842.00
2023-03-13T21:05:46.928Z,93839.63
2023-03-13T21:08:16.407Z,93834.47
2023-03-13T21:10:45.783Z,93822.75
2023-03-13T21:13:16.617Z,93821.69
2023-03-13T21:15:46.054Z,93831.47
2023-03-13T21:18:15.546Z,93826.28
2023-03-13T21:20:44.987Z,93825.13
2023-03-13T21:23:14.427Z,93830.34
2023-03-13T21:25:43.819Z,93836.00
2023-03-13T21:28:13.292Z,93853.81
2023-03-13T21:30:44.099Z,93847.09
2023-03-13T21:33:13.536Z,93844.91
2023-03-13T21:35:43.128Z,93846.50
2023-03-13T21:38:12.542Z,93856.41
2023-03-13T21:40:42.394Z,93867.34
2023-03-13T21:43:11.858Z,93882.56
2023-03-13T21:45:41.315Z,93891.97
2023-03-13T21:48:12.152Z,93909.81
2023-03-13T21:50:41.555Z,93916.31
2023-03-13T21:53:10.941Z,93929.91
2023-03-13T21:55:40.618Z,93949.50
2023-03-13T21:58:10.130Z,93973.22
2023-03-13T22:00:39.612Z,94084.31
2023-03-13T22:03:09.152Z,94105.97
2023-03-13T22:05:43.716Z,94097.84
2023-03-13T22:08:14.149Z,94108.38
2023-03-13T22:10:49.969Z,94116.06
2023-03-13T22:13:19.920Z,94128.09
2023-03-13T22:15:50.526Z,94129.28
2023-03-13T22:18:20.145Z,94113.94
2023-03-13T22:20:50.934Z,94116.41
2023-03-13T22:23:20.371Z,94116.59
2023-03-13T22:25:49.795Z,94111.75
2023-03-13T22:28:19.208Z,94115.56
2023-03-13T22:30:48.677Z,94112.09
2023-03-13T22:33:18.777Z,94104.19
2023-03-13T22:35:53.132Z,94104.50
2023-03-13T22:38:23.341Z,94098.00
2023-03-13T22:41:02.325Z,94082.75
2023-03-13T22:43:32.356Z,94086.84
2023-03-13T22:46:04.481Z,94080.44
2023-03-13T22:48:34.089Z,94081.34
2023-03-13T22:51:09.588Z,94087.19
2023-03-13T22:53:41.889Z,94097.47
2023-03-13T22:56:13.392Z,94097.81
2023-03-13T22:58:43.480Z,94100.50
2023-03-13T23:01:16.454Z,94096.22
2023-03-13T23:03:46.962Z,94097.47
2023-03-13T23:06:21.780Z,94096.41
2023-03-13T23:08:51.505Z,94080.56
2023-03-13T23:11:21.618Z,94078.06
2023-03-13T23:13:51.030Z,94094.50
2023-03-13T23:16:20.488Z,94087.06
2023-03-13T23:18:50.074Z,94076.16
2023-03-13T23:21:20.917Z,94076.28
2023-03-13T23:23:50.453Z,94067.22
2023-03-13T23:26:19.891Z,94058.53
2023-03-13T23:28:49.383Z,94070.22
2023-03-13T23:31:23.151Z,94075.13
2023-03-13T23:33:52.667Z,94088.88
2023-03-13T23:36:23.453Z,94110.88
2023-03-13T23:38:57.375Z,94124.50
2023-03-13T23:41:27.012Z,94131.06
2023-03-13T23:43:56.448Z,94131.78
2023-03-13T23:46:27.184Z,94142.31
2023-03-13T23:48:58.314Z,94131.59
2023-03-13T23:51:29.177Z,94129.19
2023-03-13T23:53:58.776Z,94116.75
2023-03-13T23:56:29.582Z,94106.91
2023-03-13T23:58:59.732Z,94095.97
